sensor_id;sensor_type;location;lat;lon;timestamp;P1;durP1;ratioP1;P2;durP2;ratioP2
25299;SDS011;13241;51.208;4.432;2023-03-03T00:01:37;18.63;;;6.88;;
25299;SDS011;13241;51.208;4.432;2023-03-03T00:04:05;12.75;;;5.55;;
25299;SDS011;13241;51.208;4.432;2023-03-03T00:06:32;13.68;;;5.93;;
25299;SDS011;13241;51.208;4.432;2023-03-03T00:08:59;13.45;;;6.03;;
25299;SDS011;13241;51.208;4.432;2023-03-03T00:11:26;9.48;;;4.68;;
25299;SDS011;13241;51.208;4.432;2023-03-03T00:13:55;11.73;;;5.70;;
25299;SDS011;13241;51.208;4.432;2023-03-03T00:16:40;10.75;;;6.07;;
25299;SDS011;13241;51.208;4.432;2023-03-03T00:19:14;9.15;;;5.18;;
25299;SDS011;13241;51.208;4.432;2023-03-03T00:21:46;12.80;;;5.82;;
25299;SDS011;13241;51.208;4.432;2023-03-03T00:26:48;13.35;;;6.10;;
25299;SDS011;13241;51.208;4.432;2023-03-03T00:29:35;21.77;;;7.13;;
25299;SDS011;13241;51.208;4.432;2023-03-03T00:34:51;15.70;;;6.57;;
25299;SDS011;13241;51.208;4.432;2023-03-03T00:39:46;12.57;;;6.65;;
25299;SDS011;13241;51.208;4.432;2023-03-03T00:42:14;16.30;;;6.55;;
25299;SDS011;13241;51.208;4.432;2023-03-03T00:44:43;8.38;;;4.85;;
25299;SDS011;13241;51.208;4.432;2023-03-03T00:49:41;13.07;;;6.07;;
25299;SDS011;13241;51.208;4.432;2023-03-03T00:52:27;10.60;;;5.07;;
25299;SDS011;13241;51.208;4.432;2023-03-03T00:54:54;12.13;;;6.80;;
25299;SDS011;13241;51.208;4.432;2023-03-03T00:57:22;12.25;;;5.68;;
25299;SDS011;13241;51.208;4.432;2023-03-03T00:59:50;14.57;;;7.45;;
25299;SDS011;13241;51.208;4.432;2023-03-03T01:02:17;11.75;;;5.97;;
25299;SDS011;13241;51.208;4.432;2023-03-03T01:04:47;20.63;;;7.18;;
25299;SDS011;13241;51.208;4.432;2023-03-03T01:07:15;14.43;;;6.28;;
25299;SDS011;13241;51.208;4.432;2023-03-03T01:09:43;16.63;;;6.40;;
25299;SDS011;13241;51.208;4.432;2023-03-03T01:12:10;9.93;;;5.82;;
25299;SDS011;13241;51.208;4.432;2023-03-03T01:14:38;11.40;;;5.22;;
25299;SDS011;13241;51.208;4.432;2023-03-03T01:17:06;14.18;;;6.60;;
25299;SDS011;13241;51.208;4.432;2023-03-03T01:19:33;14.35;;;5.78;;
25299;SDS011;13241;51.208;4.432;2023-03-03T01:22:00;13.68;;;7.13;;
25299;SDS011;13241;51.208;4.432;2023-03-03T01:24:28;18.70;;;7.50;;
25299;SDS011;13241;51.208;4.432;2023-03-03T01:26:55;10.60;;;6.05;;
25299;SDS011;13241;51.208;4.432;2023-03-03T01:29:22;10.90;;;5.72;;
25299;SDS011;13241;51.208;4.432;2023-03-03T01:31:50;12.30;;;7.10;;
25299;SDS011;13241;51.208;4.432;2023-03-03T01:34:17;19.25;;;6.47;;
25299;SDS011;13241;51.208;4.432;2023-03-03T01:36:44;15.43;;;5.63;;
25299;SDS011;13241;51.208;4.432;2023-03-03T01:39:12;16.88;;;7.40;;
25299;SDS011;13241;51.208;4.432;2023-03-03T01:41:39;13.60;;;6.32;;
25299;SDS011;13241;51.208;4.432;2023-03-03T01:44:08;16.70;;;5.90;;
25299;SDS011;13241;51.208;4.432;2023-03-03T01:49:21;20.60;;;6.93;;
25299;SDS011;13241;51.208;4.432;2023-03-03T01:51:53;12.60;;;5.70;;
25299;SDS011;13241;51.208;4.432;2023-03-03T01:54:26;15.93;;;8.52;;
25299;SDS011;13241;51.208;4.432;2023-03-03T01:56:54;17.20;;;6.30;;
25299;SDS011;13241;51.208;4.432;2023-03-03T01:59:23;11.82;;;5.57;;
25299;SDS011;13241;51.208;4.432;2023-03-03T02:01:51;14.48;;;5.80;;
25299;SDS011;13241;51.208;4.432;2023-03-03T02:04:19;18.98;;;7.53;;
25299;SDS011;13241;51.208;4.432;2023-03-03T02:06:51;21.17;;;7.90;;
25299;SDS011;13241;51.208;4.432;2023-03-03T02:12:02;11.82;;;7.15;;
25299;SDS011;13241;51.208;4.432;2023-03-03T02:14:31;14.05;;;6.43;;
25299;SDS011;13241;51.208;4.432;2023-03-03T02:16:58;11.50;;;5.72;;
25299;SDS011;13241;51.208;4.432;2023-03-03T02:19:30;12.55;;;5.70;;
25299;SDS011;13241;51.208;4.432;2023-03-03T02:21:59;17.50;;;8.27;;
25299;SDS011;13241;51.208;4.432;2023-03-03T02:24:32;14.00;;;7.30;;
25299;SDS011;13241;51.208;4.432;2023-03-03T02:27:00;19.73;;;7.70;;
25299;SDS011;13241;51.208;4.432;2023-03-03T02:29:28;11.60;;;6.03;;
25299;SDS011;13241;51.208;4.432;2023-03-03T02:31:56;13.77;;;6.43;;
25299;SDS011;13241;51.208;4.432;2023-03-03T02:34:24;16.13;;;8.10;;
25299;SDS011;13241;51.208;4.432;2023-03-03T02:36:51;13.10;;;6.28;;
25299;SDS011;13241;51.208;4.432;2023-03-03T02:39:24;12.57;;;5.78;;
25299;SDS011;13241;51.208;4.432;2023-03-03T02:44:28;13.68;;;5.68;;
25299;SDS011;13241;51.208;4.432;2023-03-03T02:46:56;11.68;;;6.32;;
25299;SDS011;13241;51.208;4.432;2023-03-03T02:49:34;12.50;;;7.32;;
25299;SDS011;13241;51.208;4.432;2023-03-03T02:52:03;14.18;;;7.95;;
25299;SDS011;13241;51.208;4.432;2023-03-03T02:54:31;18.85;;;6.85;;
25299;SDS011;13241;51.208;4.432;2023-03-03T02:57:00;12.82;;;6.05;;
25299;SDS011;13241;51.208;4.432;2023-03-03T02:59:28;18.55;;;8.40;;
25299;SDS011;13241;51.208;4.432;2023-03-03T03:02:02;17.13;;;6.75;;
25299;SDS011;13241;51.208;4.432;2023-03-03T03:04:30;15.10;;;6.55;;
25299;SDS011;13241;51.208;4.432;2023-03-03T03:06:57;9.93;;;6.32;;
25299;SDS011;13241;51.208;4.432;2023-03-03T03:09:27;18.25;;;7.32;;
25299;SDS011;13241;51.208;4.432;2023-03-03T03:11:54;16.48;;;7.10;;
25299;SDS011;13241;51.208;4.432;2023-03-03T03:14:24;12.40;;;7.25;;
25299;SDS011;13241;51.208;4.432;2023-03-03T03:16:53;11.60;;;7.68;;
25299;SDS011;13241;51.208;4.432;2023-03-03T03:19:20;14.50;;;6.63;;
25299;SDS011;13241;51.208;4.432;2023-03-03T03:21:48;12.75;;;5.60;;
25299;SDS011;13241;51.208;4.432;2023-03-03T03:24:15;11.32;;;6.78;;
25299;SDS011;13241;51.208;4.432;2023-03-03T03:29:16;11.70;;;6.30;;
25299;SDS011;13241;51.208;4.432;2023-03-03T03:31:43;16.85;;;7.22;;
25299;SDS011;13241;51.208;4.432;2023-03-03T03:34:11;13.52;;;6.40;;
25299;SDS011;13241;51.208;4.432;2023-03-03T03:36:39;15.50;;;7.00;;
25299;SDS011;13241;51.208;4.432;2023-03-03T03:39:06;13.88;;;7.53;;
25299;SDS011;13241;51.208;4.432;2023-03-03T03:41:37;16.63;;;5.63;;
25299;SDS011;13241;51.208;4.432;2023-03-03T03:44:04;13.45;;;5.82;;
25299;SDS011;13241;51.208;4.432;2023-03-03T03:46:32;11.32;;;6.13;;
25299;SDS011;13241;51.208;4.432;2023-03-03T03:48:59;10.93;;;6.20;;
25299;SDS011;13241;51.208;4.432;2023-03-03T03:51:27;14.65;;;5.80;;
25299;SDS011;13241;51.208;4.432;2023-03-03T03:53:55;10.10;;;5.20;;
25299;SDS011;13241;51.208;4.432;2023-03-03T03:56:22;18.13;;;7.65;;
25299;SDS011;13241;51.208;4.432;2023-03-03T03:58:53;19.08;;;5.68;;
25299;SDS011;13241;51.208;4.432;2023-03-03T04:01:20;13.70;;;6.10;;
25299;SDS011;13241;51.208;4.432;2023-03-03T04:03:48;15.18;;;6.45;;
25299;SDS011;13241;51.208;4.432;2023-03-03T04:06:19;11.68;;;7.07;;
25299;SDS011;13241;51.208;4.432;2023-03-03T04:08:46;10.80;;;5.93;;
25299;SDS011;13241;51.208;4.432;2023-03-03T04:11:16;15.65;;;6.93;;
25299;SDS011;13241;51.208;4.432;2023-03-03T04:13:43;12.30;;;6.90;;
25299;SDS011;13241;51.208;4.432;2023-03-03T04:16:11;14.15;;;5.80;;
25299;SDS011;13241;51.208;4.432;2023-03-03T04:18:41;11.13;;;6.03;;
25299;SDS011;13241;51.208;4.432;2023-03-03T04:21:12;9.77;;;5.65;;
25299;SDS011;13241;51.208;4.432;2023-03-03T04:23:40;13.85;;;6.05;;
25299;SDS011;13241;51.208;4.432;2023-03-03T04:26:08;11.10;;;4.90;;
25299;SDS011;13241;51.208;4.432;2023-03-03T04:28:36;12.82;;;6.90;;
25299;SDS011;13241;51.208;4.432;2023-03-03T04:31:05;13.68;;;6.30;;
25299;SDS011;13241;51.208;4.432;2023-03-03T04:33:32;14.75;;;6.30;;
25299;SDS011;13241;51.208;4.432;2023-03-03T04:36:01;13.55;;;7.25;;
25299;SDS011;13241;51.208;4.432;2023-03-03T04:38:29;10.45;;;5.20;;
25299;SDS011;13241;51.208;4.432;2023-03-03T04:40:56;15.13;;;6.25;;
25299;SDS011;13241;51.208;4.432;2023-03-03T04:43:26;16.02;;;6.75;;
25299;SDS011;13241;51.208;4.432;2023-03-03T04:45:55;19.25;;;6.63;;
25299;SDS011;13241;51.208;4.432;2023-03-03T04:48:22;12.27;;;6.55;;
25299;SDS011;13241;51.208;4.432;2023-03-03T04:50:50;16.90;;;6.03;;
25299;SDS011;13241;51.208;4.432;2023-03-03T04:53:18;16.73;;;8.02;;
25299;SDS011;13241;51.208;4.432;2023-03-03T04:55:45;12.25;;;5.43;;
25299;SDS011;13241;51.208;4.432;2023-03-03T04:58:13;10.52;;;5.82;;
25299;SDS011;13241;51.208;4.432;2023-03-03T05:00:41;16.40;;;5.72;;
25299;SDS011;13241;51.208;4.432;2023-03-03T05:03:09;12.82;;;6.43;;
25299;SDS011;13241;51.208;4.432;2023-03-03T05:05:39;15.50;;;8.05;;
25299;SDS011;13241;51.208;4.432;2023-03-03T05:08:07;15.57;;;6.00;;
25299;SDS011;13241;51.208;4.432;2023-03-03T05:10:34;7.05;;;5.25;;
25299;SDS011;13241;51.208;4.432;2023-03-03T05:13:02;15.57;;;6.38;;
25299;SDS011;13241;51.208;4.432;2023-03-03T05:15:30;10.82;;;5.25;;
25299;SDS011;13241;51.208;4.432;2023-03-03T05:17:57;8.35;;;4.82;;
25299;SDS011;13241;51.208;4.432;2023-03-03T05:20:24;11.38;;;5.97;;
25299;SDS011;13241;51.208;4.432;2023-03-03T05:22:52;11.60;;;4.82;;
25299;SDS011;13241;51.208;4.432;2023-03-03T05:25:20;7.68;;;4.28;;
25299;SDS011;13241;51.208;4.432;2023-03-03T05:27:47;14.07;;;7.32;;
25299;SDS011;13241;51.208;4.432;2023-03-03T05:30:14;11.05;;;5.50;;
25299;SDS011;13241;51.208;4.432;2023-03-03T05:32:42;10.93;;;5.30;;
25299;SDS011;13241;51.208;4.432;2023-03-03T05:35:09;11.93;;;6.35;;
25299;SDS011;13241;51.208;4.432;2023-03-03T05:37:36;12.98;;;6.38;;
25299;SDS011;13241;51.208;4.432;2023-03-03T05:40:08;14.00;;;5.95;;
25299;SDS011;13241;51.208;4.432;2023-03-03T05:42:35;9.75;;;5.85;;
25299;SDS011;13241;51.208;4.432;2023-03-03T05:45:03;8.15;;;5.32;;
25299;SDS011;13241;51.208;4.432;2023-03-03T05:47:30;12.77;;;6.15;;
25299;SDS011;13241;51.208;4.432;2023-03-03T05:49:57;10.40;;;4.78;;
25299;SDS011;13241;51.208;4.432;2023-03-03T05:52:26;8.82;;;5.47;;
25299;SDS011;13241;51.208;4.432;2023-03-03T05:54:53;16.73;;;6.15;;
25299;SDS011;13241;51.208;4.432;2023-03-03T05:57:20;12.70;;;4.93;;
25299;SDS011;13241;51.208;4.432;2023-03-03T05:59:47;9.85;;;5.47;;
25299;SDS011;13241;51.208;4.432;2023-03-03T06:02:15;9.48;;;4.88;;
25299;SDS011;13241;51.208;4.432;2023-03-03T06:04:42;14.35;;;5.25;;
25299;SDS011;13241;51.208;4.432;2023-03-03T06:07:09;12.02;;;5.22;;
25299;SDS011;13241;51.208;4.432;2023-03-03T06:09:36;16.75;;;5.93;;
25299;SDS011;13241;51.208;4.432;2023-03-03T06:12:04;7.13;;;3.90;;
25299;SDS011;13241;51.208;4.432;2023-03-03T06:14:31;8.60;;;4.00;;
25299;SDS011;13241;51.208;4.432;2023-03-03T06:16:58;9.07;;;6.35;;
25299;SDS011;13241;51.208;4.432;2023-03-03T06:19:26;13.68;;;5.88;;
25299;SDS011;13241;51.208;4.432;2023-03-03T06:21:53;8.65;;;4.80;;
25299;SDS011;13241;51.208;4.432;2023-03-03T06:24:20;10.48;;;4.82;;
25299;SDS011;13241;51.208;4.432;2023-03-03T06:26:50;10.70;;;5.68;;
25299;SDS011;13241;51.208;4.432;2023-03-03T06:29:18;10.85;;;5.95;;
25299;SDS011;13241;51.208;4.432;2023-03-03T06:31:45;9.57;;;4.35;;
25299;SDS011;13241;51.208;4.432;2023-03-03T06:34:12;7.50;;;4.57;;
25299;SDS011;13241;51.208;4.432;2023-03-03T06:36:39;11.50;;;6.22;;
25299;SDS011;13241;51.208;4.432;2023-03-03T06:39:07;7.55;;;4.47;;
25299;SDS011;13241;51.208;4.432;2023-03-03T06:41:34;8.85;;;4.35;;
25299;SDS011;13241;51.208;4.432;2023-03-03T06:44:01;11.40;;;4.72;;
25299;SDS011;13241;51.208;4.432;2023-03-03T06:46:29;10.48;;;4.10;;
25299;SDS011;13241;51.208;4.432;2023-03-03T06:48:56;18.52;;;4.50;;
25299;SDS011;13241;51.208;4.432;2023-03-03T06:53:55;14.18;;;5.25;;
25299;SDS011;13241;51.208;4.432;2023-03-03T06:56:23;9.93;;;5.47;;
25299;SDS011;13241;51.208;4.432;2023-03-03T06:59:00;11.73;;;4.80;;
25299;SDS011;13241;51.208;4.432;2023-03-03T07:01:29;18.38;;;5.90;;
25299;SDS011;13241;51.208;4.432;2023-03-03T07:03:59;11.10;;;4.93;;
25299;SDS011;13241;51.208;4.432;2023-03-03T07:06:26;8.80;;;4.63;;
25299;SDS011;13241;51.208;4.432;2023-03-03T07:08:55;9.95;;;5.20;;
25299;SDS011;13241;51.208;4.432;2023-03-03T07:11:23;7.80;;;4.53;;
25299;SDS011;13241;51.208;4.432;2023-03-03T07:13:51;12.77;;;6.10;;
25299;SDS011;13241;51.208;4.432;2023-03-03T07:16:21;12.35;;;4.05;;
25299;SDS011;13241;51.208;4.432;2023-03-03T07:18:57;18.80;;;7.65;;
25299;SDS011;13241;51.208;4.432;2023-03-03T07:21:33;12.60;;;5.20;;
25299;SDS011;13241;51.208;4.432;2023-03-03T07:24:18;12.23;;;5.20;;
25299;SDS011;13241;51.208;4.432;2023-03-03T07:26:47;10.15;;;5.22;;
25299;SDS011;13241;51.208;4.432;2023-03-03T07:31:47;11.35;;;6.10;;
25299;SDS011;13241;51.208;4.432;2023-03-03T07:34:20;27.27;;;5.45;;
25299;SDS011;13241;51.208;4.432;2023-03-03T07:36:58;13.13;;;6.30;;
25299;SDS011;13241;51.208;4.432;2023-03-03T07:39:29;9.13;;;4.72;;
25299;SDS011;13241;51.208;4.432;2023-03-03T07:41:59;11.65;;;5.15;;
25299;SDS011;13241;51.208;4.432;2023-03-03T07:44:33;9.30;;;3.75;;
25299;SDS011;13241;51.208;4.432;2023-03-03T07:47:18;10.00;;;4.63;;
25299;SDS011;13241;51.208;4.432;2023-03-03T07:49:46;10.15;;;5.95;;
25299;SDS011;13241;51.208;4.432;2023-03-03T07:55:01;11.52;;;4.90;;
25299;SDS011;13241;51.208;4.432;2023-03-03T07:57:34;10.25;;;4.93;;
25299;SDS011;13241;51.208;4.432;2023-03-03T08:02:46;8.55;;;4.53;;
25299;SDS011;13241;51.208;4.432;2023-03-03T08:05:27;11.60;;;4.95;;
25299;SDS011;13241;51.208;4.432;2023-03-03T08:08:37;7.07;;;3.13;;
25299;SDS011;13241;51.208;4.432;2023-03-03T08:10:49;10.80;;;5.10;;
25299;SDS011;13241;51.208;4.432;2023-03-03T08:16:23;3.95;;;2.88;;
25299;SDS011;13241;51.208;4.432;2023-03-03T08:18:49;7.45;;;3.33;;
25299;SDS011;13241;51.208;4.432;2023-03-03T08:21:19;10.60;;;4.40;;
25299;SDS011;13241;51.208;4.432;2023-03-03T08:23:48;7.68;;;5.30;;
25299;SDS011;13241;51.208;4.432;2023-03-03T08:26:17;8.73;;;5.20;;
25299;SDS011;13241;51.208;4.432;2023-03-03T08:28:44;7.13;;;3.75;;
25299;SDS011;13241;51.208;4.432;2023-03-03T08:31:12;17.50;;;5.35;;
25299;SDS011;13241;51.208;4.432;2023-03-03T08:33:53;9.02;;;5.18;;
25299;SDS011;13241;51.208;4.432;2023-03-03T08:36:20;9.80;;;4.43;;
25299;SDS011;13241;51.208;4.432;2023-03-03T08:38:47;10.80;;;4.13;;
25299;SDS011;13241;51.208;4.432;2023-03-03T08:41:14;12.77;;;4.45;;
25299;SDS011;13241;51.208;4.432;2023-03-03T08:43:42;9.60;;;4.57;;
25299;SDS011;13241;51.208;4.432;2023-03-03T08:46:10;8.55;;;4.05;;
25299;SDS011;13241;51.208;4.432;2023-03-03T08:48:38;11.05;;;4.00;;
25299;SDS011;13241;51.208;4.432;2023-03-03T08:51:05;8.00;;;5.45;;
25299;SDS011;13241;51.208;4.432;2023-03-03T08:53:32;8.27;;;4.28;;
25299;SDS011;13241;51.208;4.432;2023-03-03T08:56:01;11.38;;;5.20;;
25299;SDS011;13241;51.208;4.432;2023-03-03T08:58:29;10.30;;;4.68;;
25299;SDS011;13241;51.208;4.432;2023-03-03T09:01:01;7.05;;;3.97;;
25299;SDS011;13241;51.208;4.432;2023-03-03T09:03:28;11.98;;;4.78;;
25299;SDS011;13241;51.208;4.432;2023-03-03T09:05:56;8.75;;;4.70;;
25299;SDS011;13241;51.208;4.432;2023-03-03T09:08:23;11.82;;;4.75;;
25299;SDS011;13241;51.208;4.432;2023-03-03T09:10:50;9.73;;;3.85;;
25299;SDS011;13241;51.208;4.432;2023-03-03T09:13:18;12.35;;;4.97;;
25299;SDS011;13241;51.208;4.432;2023-03-03T09:15:46;10.65;;;5.35;;
25299;SDS011;13241;51.208;4.432;2023-03-03T09:18:18;11.82;;;5.15;;
25299;SDS011;13241;51.208;4.432;2023-03-03T09:20:48;9.48;;;5.22;;
25299;SDS011;13241;51.208;4.432;2023-03-03T09:25:52;6.25;;;3.97;;
25299;SDS011;13241;51.208;4.432;2023-03-03T09:28:24;10.18;;;4.13;;
25299;SDS011;13241;51.208;4.432;2023-03-03T09:30:52;7.10;;;3.88;;
25299;SDS011;13241;51.208;4.432;2023-03-03T09:35:54;12.13;;;5.30;;
25299;SDS011;13241;51.208;4.432;2023-03-03T09:46:08;12.63;;;4.85;;
25299;SDS011;13241;51.208;4.432;2023-03-03T09:51:26;9.65;;;5.13;;
25299;SDS011;13241;51.208;4.432;2023-03-03T09:54:05;16.25;;;5.70;;
25299;SDS011;13241;51.208;4.432;2023-03-03T10:07:44;8.20;;;4.72;;
25299;SDS011;13241;51.208;4.432;2023-03-03T10:25:55;16.27;;;5.25;;
25299;SDS011;13241;51.208;4.432;2023-03-03T10:39:36;10.25;;;5.15;;
25299;SDS011;13241;51.208;4.432;2023-03-03T10:45:41;13.25;;;5.05;;
25299;SDS011;13241;51.208;4.432;2023-03-03T10:47:47;10.55;;;4.53;;
25299;SDS011;13241;51.208;4.432;2023-03-03T10:50:26;7.85;;;3.75;;
25299;SDS011;13241;51.208;4.432;2023-03-03T11:00:48;12.60;;;4.35;;
25299;SDS011;13241;51.208;4.432;2023-03-03T11:08:54;8.23;;;4.10;;
25299;SDS011;13241;51.208;4.432;2023-03-03T11:14:02;7.32;;;3.05;;
25299;SDS011;13241;51.208;4.432;2023-03-03T11:16:48;5.50;;;3.03;;
25299;SDS011;13241;51.208;4.432;2023-03-03T11:19:26;8.73;;;4.60;;
25299;SDS011;13241;51.208;4.432;2023-03-03T11:24:50;7.88;;;3.45;;
25299;SDS011;13241;51.208;4.432;2023-03-03T11:27:37;10.85;;;3.42;;
25299;SDS011;13241;51.208;4.432;2023-03-03T11:32:48;9.82;;;4.25;;
25299;SDS011;13241;51.208;4.432;2023-03-03T11:35:18;15.65;;;5.38;;
25299;SDS011;13241;51.208;4.432;2023-03-03T11:40:41;8.02;;;3.20;;
25299;SDS011;13241;51.208;4.432;2023-03-03T11:43:55;4.50;;;2.90;;
25299;SDS011;13241;51.208;4.432;2023-03-03T11:46:08;8.57;;;3.35;;
25299;SDS011;13241;51.208;4.432;2023-03-03T11:54:20;5.93;;;3.17;;
25299;SDS011;13241;51.208;4.432;2023-03-03T11:56:49;6.70;;;3.72;;
25299;SDS011;13241;51.208;4.432;2023-03-03T12:04:43;9.90;;;3.92;;
25299;SDS011;13241;51.208;4.432;2023-03-03T12:07:18;5.60;;;3.50;;
25299;SDS011;13241;51.208;4.432;2023-03-03T12:12:23;7.18;;;4.32;;
25299;SDS011;13241;51.208;4.432;2023-03-03T12:15:13;6.22;;;2.60;;
25299;SDS011;13241;51.208;4.432;2023-03-03T12:25:37;8.30;;;4.57;;
25299;SDS011;13241;51.208;4.432;2023-03-03T12:28:10;6.43;;;3.03;;
25299;SDS011;13241;51.208;4.432;2023-03-03T12:30:45;6.75;;;3.17;;
25299;SDS011;13241;51.208;4.432;2023-03-03T12:33:31;8.77;;;3.42;;
25299;SDS011;13241;51.208;4.432;2023-03-03T12:36:03;5.97;;;3.20;;
25299;SDS011;13241;51.208;4.432;2023-03-03T12:46:16;5.88;;;3.00;;
25299;SDS011;13241;51.208;4.432;2023-03-03T12:48:54;5.95;;;2.42;;
25299;SDS011;13241;51.208;4.432;2023-03-03T12:51:28;10.35;;;3.60;;
25299;SDS011;13241;51.208;4.432;2023-03-03T13:02:24;6.15;;;3.42;;
25299;SDS011;13241;51.208;4.432;2023-03-03T13:05:08;6.00;;;3.28;;
25299;SDS011;13241;51.208;4.432;2023-03-03T13:15:15;5.20;;;2.58;;
25299;SDS011;13241;51.208;4.432;2023-03-03T13:22:58;10.10;;;3.67;;
25299;SDS011;13241;51.208;4.432;2023-03-03T13:28:20;6.22;;;3.08;;
25299;SDS011;13241;51.208;4.432;2023-03-03T13:30:49;10.25;;;3.55;;
25299;SDS011;13241;51.208;4.432;2023-03-03T13:33:27;6.63;;;3.63;;
25299;SDS011;13241;51.208;4.432;2023-03-03T13:36:02;5.13;;;2.63;;
25299;SDS011;13241;51.208;4.432;2023-03-03T13:38:48;6.78;;;2.83;;
25299;SDS011;13241;51.208;4.432;2023-03-03T13:46:20;2.97;;;1.85;;
25299;SDS011;13241;51.208;4.432;2023-03-03T13:49:12;4.82;;;2.50;;
25299;SDS011;13241;51.208;4.432;2023-03-03T13:56:46;5.93;;;2.85;;
25299;SDS011;13241;51.208;4.432;2023-03-03T14:06:56;4.15;;;2.88;;
25299;SDS011;13241;51.208;4.432;2023-03-03T14:09:34;6.15;;;2.55;;
25299;SDS011;13241;51.208;4.432;2023-03-03T14:22:43;5.70;;;2.60;;
25299;SDS011;13241;51.208;4.432;2023-03-03T14:25:12;5.30;;;2.08;;
25299;SDS011;13241;51.208;4.432;2023-03-03T14:36:23;4.75;;;2.83;;
25299;SDS011;13241;51.208;4.432;2023-03-03T14:38:23;4.22;;;2.60;;
25299;SDS011;13241;51.208;4.432;2023-03-03T14:41:14;4.80;;;2.60;;
25299;SDS011;13241;51.208;4.432;2023-03-03T14:48:54;6.30;;;2.83;;
25299;SDS011;13241;51.208;4.432;2023-03-03T14:51:23;5.65;;;3.35;;
25299;SDS011;13241;51.208;4.432;2023-03-03T14:53:50;7.25;;;2.88;;
25299;SDS011;13241;51.208;4.432;2023-03-03T14:59:22;15.40;;;3.00;;
25299;SDS011;13241;51.208;4.432;2023-03-03T15:02:06;3.10;;;2.58;;
25299;SDS011;13241;51.208;4.432;2023-03-03T15:04:36;6.30;;;3.15;;
25299;SDS011;13241;51.208;4.432;2023-03-03T15:09:50;8.80;;;2.92;;
25299;SDS011;13241;51.208;4.432;2023-03-03T15:12:21;3.88;;;2.38;;
25299;SDS011;13241;51.208;4.432;2023-03-03T15:14:50;4.45;;;2.83;;
25299;SDS011;13241;51.208;4.432;2023-03-03T15:17:23;9.88;;;4.03;;
25299;SDS011;13241;51.208;4.432;2023-03-03T15:22:51;4.90;;;1.98;;
25299;SDS011;13241;51.208;4.432;2023-03-03T15:25:25;4.47;;;1.88;;
25299;SDS011;13241;51.208;4.432;2023-03-03T15:35:56;4.30;;;2.25;;
25299;SDS011;13241;51.208;4.432;2023-03-03T15:38:30;6.28;;;2.13;;
25299;SDS011;13241;51.208;4.432;2023-03-03T15:43:35;2.95;;;2.13;;
25299;SDS011;13241;51.208;4.432;2023-03-03T15:56:58;4.30;;;2.05;;
25299;SDS011;13241;51.208;4.432;2023-03-03T15:59:43;2.30;;;1.60;;
25299;SDS011;13241;51.208;4.432;2023-03-03T16:02:18;5.40;;;2.40;;
25299;SDS011;13241;51.208;4.432;2023-03-03T16:04:58;2.25;;;1.70;;
25299;SDS011;13241;51.208;4.432;2023-03-03T16:18:09;4.10;;;1.60;;
25299;SDS011;13241;51.208;4.432;2023-03-03T16:26:03;3.38;;;1.45;;
25299;SDS011;13241;51.208;4.432;2023-03-03T16:31:06;7.38;;;2.22;;
25299;SDS011;13241;51.208;4.432;2023-03-03T16:33:49;3.30;;;1.95;;
25299;SDS011;13241;51.208;4.432;2023-03-03T16:39:02;2.97;;;1.80;;
25299;SDS011;13241;51.208;4.432;2023-03-03T16:41:50;3.38;;;1.38;;
25299;SDS011;13241;51.208;4.432;2023-03-03T16:47:18;2.88;;;1.65;;
25299;SDS011;13241;51.208;4.432;2023-03-03T16:52:23;7.97;;;1.35;;
25299;SDS011;13241;51.208;4.432;2023-03-03T16:55:06;0.95;;;0.77;;
25299;SDS011;13241;51.208;4.432;2023-03-03T16:57:41;2.58;;;1.17;;
25299;SDS011;13241;51.208;4.432;2023-03-03T17:00:28;1.73;;;1.10;;
25299;SDS011;13241;51.208;4.432;2023-03-03T17:13:39;2.17;;;1.45;;
25299;SDS011;13241;51.208;4.432;2023-03-03T17:24:12;1.60;;;1.30;;
25299;SDS011;13241;51.208;4.432;2023-03-03T17:29:18;1.38;;;1.25;;
25299;SDS011;13241;51.208;4.432;2023-03-03T17:31:50;2.63;;;1.70;;
25299;SDS011;13241;51.208;4.432;2023-03-03T17:42:20;1.58;;;1.48;;
25299;SDS011;13241;51.208;4.432;2023-03-03T17:45:09;1.30;;;1.20;;
25299;SDS011;13241;51.208;4.432;2023-03-03T17:47:41;1.77;;;1.25;;
25299;SDS011;13241;51.208;4.432;2023-03-03T18:11:18;6.45;;;1.63;;
25299;SDS011;13241;51.208;4.432;2023-03-03T18:13:54;2.15;;;1.48;;
25299;SDS011;13241;51.208;4.432;2023-03-03T18:21:44;2.33;;;1.95;;
25299;SDS011;13241;51.208;4.432;2023-03-03T18:26:55;2.67;;;2.13;;
25299;SDS011;13241;51.208;4.432;2023-03-03T18:30:12;2.93;;;2.13;;
25299;SDS011;13241;51.208;4.432;2023-03-03T18:32:41;4.20;;;2.38;;
25299;SDS011;13241;51.208;4.432;2023-03-03T18:37:50;3.28;;;2.15;;
25299;SDS011;13241;51.208;4.432;2023-03-03T18:40:31;3.67;;;1.88;;
25299;SDS011;13241;51.208;4.432;2023-03-03T18:42:58;2.65;;;1.52;;
25299;SDS011;13241;51.208;4.432;2023-03-03T18:45:46;2.78;;;2.00;;
25299;SDS011;13241;51.208;4.432;2023-03-03T18:48:15;4.85;;;1.73;;
25299;SDS011;13241;51.208;4.432;2023-03-03T18:50:43;5.15;;;1.65;;
25299;SDS011;13241;51.208;4.432;2023-03-03T18:53:13;3.28;;;2.38;;
25299;SDS011;13241;51.208;4.432;2023-03-03T18:55:45;4.00;;;2.03;;
25299;SDS011;13241;51.208;4.432;2023-03-03T19:00:46;2.90;;;2.42;;
25299;SDS011;13241;51.208;4.432;2023-03-03T19:03:25;4.82;;;2.63;;
25299;SDS011;13241;51.208;4.432;2023-03-03T19:05:55;2.83;;;1.83;;
25299;SDS011;13241;51.208;4.432;2023-03-03T19:08:24;3.03;;;2.38;;
25299;SDS011;13241;51.208;4.432;2023-03-03T19:10:56;3.00;;;2.28;;
25299;SDS011;13241;51.208;4.432;2023-03-03T19:16:01;6.13;;;2.60;;
25299;SDS011;13241;51.208;4.432;2023-03-03T19:31:29;4.43;;;2.85;;
25299;SDS011;13241;51.208;4.432;2023-03-03T19:34:06;11.98;;;3.38;;
25299;SDS011;13241;51.208;4.432;2023-03-03T19:41:52;3.20;;;2.75;;
25299;SDS011;13241;51.208;4.432;2023-03-03T19:52:07;4.45;;;3.00;;
25299;SDS011;13241;51.208;4.432;2023-03-03T19:58:00;7.80;;;3.67;;
25299;SDS011;13241;51.208;4.432;2023-03-03T20:08:05;7.13;;;3.60;;
25299;SDS011;13241;51.208;4.432;2023-03-03T20:13:39;5.50;;;3.20;;
25299;SDS011;13241;51.208;4.432;2023-03-03T20:18:42;5.80;;;3.65;;
25299;SDS011;13241;51.208;4.432;2023-03-03T20:21:15;2.70;;;2.25;;
25299;SDS011;13241;51.208;4.432;2023-03-03T20:26:14;5.55;;;3.83;;
25299;SDS011;13241;51.208;4.432;2023-03-03T20:31:34;5.43;;;3.38;;
25299;SDS011;13241;51.208;4.432;2023-03-03T20:39:11;6.80;;;4.05;;
25299;SDS011;13241;51.208;4.432;2023-03-03T20:41:55;7.00;;;4.20;;
25299;SDS011;13241;51.208;4.432;2023-03-03T20:44:32;5.82;;;4.13;;
25299;SDS011;13241;51.208;4.432;2023-03-03T20:47:25;9.55;;;4.10;;
25299;SDS011;13241;51.208;4.432;2023-03-03T20:52:22;5.38;;;3.72;;
25299;SDS011;13241;51.208;4.432;2023-03-03T20:57:26;8.10;;;3.80;;
25299;SDS011;13241;51.208;4.432;2023-03-03T21:00:24;5.05;;;3.92;;
25299;SDS011;13241;51.208;4.432;2023-03-03T21:05:22;9.75;;;3.17;;
25299;SDS011;13241;51.208;4.432;2023-03-03T21:08:00;3.85;;;3.00;;
25299;SDS011;13241;51.208;4.432;2023-03-03T21:10:29;7.95;;;4.25;;
25299;SDS011;13241;51.208;4.432;2023-03-03T21:12:58;7.45;;;4.03;;
25299;SDS011;13241;51.208;4.432;2023-03-03T21:15:52;4.22;;;2.67;;
25299;SDS011;13241;51.208;4.432;2023-03-03T21:18:22;3.95;;;2.85;;
25299;SDS011;13241;51.208;4.432;2023-03-03T21:20:49;9.25;;;3.63;;
25299;SDS011;13241;51.208;4.432;2023-03-03T21:23:16;4.88;;;3.00;;
25299;SDS011;13241;51.208;4.432;2023-03-03T21:25:47;11.13;;;2.83;;
25299;SDS011;13241;51.208;4.432;2023-03-03T21:28:24;5.85;;;2.72;;
25299;SDS011;13241;51.208;4.432;2023-03-03T21:36:08;3.10;;;2.08;;
25299;SDS011;13241;51.208;4.432;2023-03-03T21:38:36;7.82;;;3.03;;
25299;SDS011;13241;51.208;4.432;2023-03-03T21:41:04;2.90;;;2.58;;
25299;SDS011;13241;51.208;4.432;2023-03-03T21:45:59;7.05;;;2.30;;